X  Sluiten METAR luchtvaart weer gegevens      EHRD Rotterdam The Hague Airport
Temperatuur
5°C Temperatuur
3°C Dauwpunt
87% Vochtigheid



Wind
16 KM/U
10 MPH
4 M/S
9 KTS



170°
Zuid
Huidig weer

Wat bewolking Wat bewolking
Luchtdruk 991.87 (hPa) - 29.29 (inHg)
Zicht 6 (mijl) - 9.7 (km)
Vliegveld
Vliegveld code EHRD

Locatie : Rotterdam The Hague Airport
Afstand: 20 (km)

Metar:
EHRD 232325Z AUTO 17009KT 9999 FEW025 05/03 Q0992 NOSIG

Tijd: 23-02-2024 23:25 CET